Time;durP1;ratioP1;P1;durP2;ratioP2;P2;SDS_P1;SDS_P2;PMS_P1;PMS_P2;Temp;Humidity;BMP_temperature;BMP_pressure;BME280_temperature;BME280_humidity;BME280_pressure;Samples;Min_cycle;Max_cycle;Signal;HPM_P1;HPM_P2
2023/09/25 00:02:13;;;;;;;8.65;6.97;;;21.80;99.90;;;;;;5249144;28;20044;-72
2023/09/25 00:04:44;;;;;;;7.10;6.45;;;21.80;99.90;;;;;;5247779;28;20029;-72
2023/09/25 00:07:14;;;;;;;7.15;6.45;;;21.90;99.90;;;;;;5247772;28;20446;-72
2023/09/25 00:09:45;;;;;;;7.05;6.35;;;21.80;99.90;;;;;;5247774;28;20025;-73
2023/09/25 00:12:16;;;;;;;7.15;5.68;;;22.00;99.90;;;;;;5248701;28;20132;-72
2023/09/25 00:14:47;;;;;;;6.70;5.32;;;21.90;99.90;;;;;;5248941;28;20045;-73
2023/09/25 00:17:18;;;;;;;7.25;5.97;;;21.80;99.90;;;;;;5248999;28;20035;-72
2023/09/25 00:19:49;;;;;;;6.97;6.30;;;22.00;99.90;;;;;;5248557;28;20020;-73
2023/09/25 00:22:19;;;;;;;7.00;6.40;;;21.90;99.90;;;;;;5248850;28;20039;-73
2023/09/25 00:24:50;;;;;;;7.07;5.75;;;21.80;99.90;;;;;;5248771;28;20130;-72
2023/09/25 00:27:21;;;;;;;6.63;6.03;;;21.80;99.90;;;;;;5248794;28;20028;-72
2023/09/25 00:29:52;;;;;;;6.63;6.03;;;21.80;99.90;;;;;;5248774;28;20024;-72
2023/09/25 00:32:23;;;;;;;5.90;5.40;;;21.80;99.90;;;;;;5248561;28;20032;-72
2023/09/25 00:34:54;;;;;;;7.57;5.95;;;21.90;99.90;;;;;;5248299;28;20074;-73
2023/09/25 00:37:25;;;;;;;6.15;5.05;;;21.90;99.90;;;;;;5247681;28;20085;-73
2023/09/25 00:39:58;;;;;;;5.88;5.28;;;21.80;99.90;;;;;;5248591;28;20081;-72
2023/09/25 00:42:29;;;;;;;8.73;5.78;;;22.00;99.90;;;;;;5248422;28;20032;-73
2023/09/25 00:45:00;;;;;;;7.43;5.65;;;21.80;99.90;;;;;;5246899;28;20107;-72
2023/09/25 00:47:34;;;;;;;8.15;5.85;;;21.80;99.90;;;;;;5248610;28;20457;-72
2023/09/25 00:50:08;;;;;;;5.95;5.45;;;21.80;99.90;;;;;;5248607;28;20031;-73
2023/09/25 00:52:43;;;;;;;6.00;5.50;;;21.80;99.90;;;;;;5248490;28;20499;-72
2023/09/25 00:55:15;;;;;;;8.35;5.75;;;21.80;99.90;;;;;;5248279;28;20021;-73
2023/09/25 00:57:49;;;;;;;10.32;6.40;;;21.90;99.90;;;;;;5246871;28;20021;-73
2023/09/25 01:00:21;;;;;;;7.00;6.38;;;21.90;99.90;;;;;;5248436;28;20013;-73
2023/09/25 01:02:51;;;;;;;6.95;6.20;;;22.00;99.90;;;;;;5248366;28;20027;-72
2023/09/25 01:05:22;;;;;;;8.35;5.88;;;22.00;99.90;;;;;;5247185;28;20032;-73
2023/09/25 01:07:53;;;;;;;7.13;6.43;;;21.90;99.90;;;;;;5247899;28;20416;-72
2023/09/25 01:10:26;;;;;;;7.65;6.55;;;22.10;99.90;;;;;;5247899;28;20075;-73
2023/09/25 01:12:59;;;;;;;8.02;7.25;;;21.90;99.90;;;;;;5247428;28;20136;-72
2023/09/25 01:15:30;;;;;;;8.93;8.02;;;21.80;99.90;;;;;;5247801;28;20095;-72
2023/09/25 01:18:03;;;;;;;9.02;8.25;;;21.60;99.90;;;;;;5247741;28;20028;-72
2023/09/25 01:20:33;;;;;;;9.68;8.75;;;21.80;99.90;;;;;;5247658;28;20480;-73
2023/09/25 01:23:04;;;;;;;8.68;7.60;;;21.90;99.90;;;;;;5246221;28;20078;-73
2023/09/25 01:25:35;;;;;;;9.38;8.57;;;21.80;99.90;;;;;;5247484;28;20086;-72
2023/09/25 01:28:06;;;;;;;8.93;8.02;;;22.00;99.90;;;;;;5246300;28;20137;-72
2023/09/25 01:30:37;;;;;;;8.82;8.02;;;22.00;99.90;;;;;;5246882;28;20078;-73
2023/09/25 01:33:08;;;;;;;9.07;8.15;;;22.00;99.90;;;;;;5246524;28;20032;-72
2023/09/25 01:35:38;;;;;;;9.15;8.18;;;22.00;99.90;;;;;;5247364;28;20514;-72
2023/09/25 01:38:09;;;;;;;9.25;8.45;;;22.00;99.90;;;;;;5247350;28;20032;-72
2023/09/25 01:40:40;;;;;;;9.65;8.75;;;22.00;99.90;;;;;;5247449;28;20029;-72
2023/09/25 01:43:11;;;;;;;8.60;7.80;;;22.00;99.90;;;;;;5247307;28;20064;-72
2023/09/25 01:45:42;;;;;;;9.30;8.30;;;22.00;99.90;;;;;;5247220;28;20025;-72
2023/09/25 01:48:13;;;;;;;9.88;8.90;;;22.00;99.90;;;;;;5247207;28;20036;-72
2023/09/25 01:50:44;;;;;;;9.68;8.55;;;22.00;99.90;;;;;;5247137;28;20107;-72
2023/09/25 01:53:15;;;;;;;9.30;8.35;;;22.00;99.90;;;;;;5247129;28;20035;-73
2023/09/25 01:55:45;;;;;;;10.45;8.38;;;22.00;99.90;;;;;;5247105;28;20021;-72
2023/09/25 01:58:16;;;;;;;9.77;8.98;;;22.00;99.90;;;;;;5245958;28;20124;-72
2023/09/25 02:00:47;;;;;;;11.30;9.20;;;22.10;99.90;;;;;;5247050;28;20036;-72
2023/09/25 02:03:18;;;;;;;9.70;8.68;;;22.10;99.90;;;;;;5246900;28;20503;-73
2023/09/25 02:05:49;;;;;;;10.18;9.20;;;22.00;99.90;;;;;;5241138;28;20044;-72
2023/09/25 02:08:19;;;;;;;10.23;9.13;;;22.00;99.90;;;;;;5225138;28;20083;-72
2023/09/25 02:10:50;;;;;;;9.70;8.90;;;22.00;99.90;;;;;;5226599;28;20431;-73
2023/09/25 02:13:21;;;;;;;9.02;7.95;;;21.90;99.90;;;;;;5213656;28;20490;-72
2023/09/25 02:15:53;;;;;;;12.82;8.95;;;22.00;99.90;;;;;;5205533;28;20033;-72
2023/09/25 02:18:24;;;;;;;10.65;9.55;;;22.00;99.90;;;;;;5205187;28;20100;-73
2023/09/25 02:20:56;;;;;;;11.98;10.35;;;22.20;99.90;;;;;;5204210;28;20172;-73
2023/09/25 02:23:27;;;;;;;9.80;8.90;;;22.10;99.90;;;;;;5205076;28;20571;-73
2023/09/25 02:25:58;;;;;;;12.18;8.65;;;22.20;99.90;;;;;;5204848;28;20036;-72
2023/09/25 02:28:28;;;;;;;10.35;8.85;;;22.10;99.90;;;;;;5205094;28;20068;-73
2023/09/25 02:30:59;;;;;;;10.35;8.43;;;22.00;99.90;;;;;;5204775;28;20021;-72
2023/09/25 02:33:30;;;;;;;9.80;8.70;;;22.00;99.90;;;;;;5204869;28;20022;-72
2023/09/25 02:36:09;;;;;;;9.70;8.10;;;22.10;99.90;;;;;;5205203;28;20103;-72
2023/09/25 02:38:40;;;;;;;9.05;8.07;;;21.90;99.90;;;;;;5203937;28;20037;-73
2023/09/25 02:41:10;;;;;;;9.15;8.15;;;22.10;99.90;;;;;;5205129;28;20679;-72
2023/09/25 02:43:41;;;;;;;9.85;7.43;;;22.00;99.90;;;;;;5204761;28;20477;-72
2023/09/25 02:46:12;;;;;;;8.10;7.30;;;21.90;99.90;;;;;;5203948;28;20025;-72
2023/09/25 02:48:43;;;;;;;9.45;7.57;;;21.80;99.90;;;;;;5205015;28;20487;-72
2023/09/25 02:51:14;;;;;;;12.57;7.43;;;22.00;99.90;;;;;;5204848;28;20025;-73
2023/09/25 02:53:45;;;;;;;10.70;8.10;;;22.00;99.90;;;;;;5223165;28;20029;-73
2023/09/25 02:56:15;;;;;;;10.55;8.65;;;22.00;99.90;;;;;;5225694;28;20017;-72
2023/09/25 02:58:48;;;;;;;10.13;9.07;;;22.10;99.90;;;;;;5225956;28;20040;-72
2023/09/25 03:01:19;;;;;;;9.20;8.32;;;22.10;99.90;;;;;;5225743;28;20103;-72
2023/09/25 03:03:50;;;;;;;9.18;8.23;;;22.00;99.90;;;;;;5225622;28;20160;-72
2023/09/25 03:06:20;;;;;;;9.90;8.98;;;22.00;99.90;;;;;;5225762;28;20443;-72
2023/09/25 03:08:51;;;;;;;9.48;8.45;;;22.00;99.90;;;;;;5225616;28;20024;-72
2023/09/25 03:11:22;;;;;;;9.60;8.38;;;22.00;99.90;;;;;;5225507;28;20028;-73
2023/09/25 03:13:53;;;;;;;12.57;9.48;;;22.00;99.90;;;;;;5223718;28;20053;-72
2023/09/25 03:16:24;;;;;;;9.35;8.40;;;22.10;99.90;;;;;;5223083;28;20029;-72
2023/09/25 03:18:55;;;;;;;9.98;8.95;;;22.10;99.90;;;;;;5225858;28;20032;-72
2023/09/25 03:21:25;;;;;;;14.00;8.73;;;22.10;99.90;;;;;;5225157;28;20017;-72
2023/09/25 03:23:56;;;;;;;10.38;9.25;;;22.20;99.90;;;;;;5225033;28;20033;-72
2023/09/25 03:26:27;;;;;;;11.35;9.40;;;22.30;99.90;;;;;;5221337;28;20442;-73
2023/09/25 03:28:58;;;;;;;10.73;8.20;;;22.30;99.90;;;;;;5224503;28;20059;-72
2023/09/25 03:31:29;;;;;;;12.20;9.70;;;22.30;99.90;;;;;;5227913;28;20377;-73
2023/09/25 03:34:00;;;;;;;45.63;14.32;;;22.20;99.90;;;;;;5228000;28;20025;-71
2023/09/25 03:36:31;;;;;;;34.17;10.25;;;22.30;99.90;;;;;;5227951;28;20025;-73
2023/09/25 03:39:02;;;;;;;11.63;10.38;;;22.30;99.90;;;;;;5225890;28;20039;-73
2023/09/25 03:41:33;;;;;;;14.27;10.10;;;22.30;99.90;;;;;;5206291;28;20021;-73
2023/09/25 03:44:04;;;;;;;11.30;9.23;;;22.30;99.90;;;;;;5206887;28;20039;-73
2023/09/25 03:46:35;;;;;;;11.65;9.68;;;22.30;99.90;;;;;;5206803;28;20052;-73
2023/09/25 03:49:07;;;;;;;14.30;9.25;;;22.40;99.90;;;;;;5208020;28;20473;-73
2023/09/25 03:51:38;;;;;;;12.10;9.57;;;22.40;99.90;;;;;;5207764;28;20025;-73
2023/09/25 03:54:09;;;;;;;11.95;9.65;;;22.40;99.90;;;;;;5207781;28;20018;-73
2023/09/25 03:56:41;;;;;;;14.32;9.23;;;22.40;99.90;;;;;;5206778;28;20484;-73
2023/09/25 03:59:12;;;;;;;11.23;10.18;;;22.50;99.90;;;;;;5207267;28;20477;-73
2023/09/25 04:01:43;;;;;;;12.23;9.90;;;22.50;99.90;;;;;;5206980;28;20060;-73
2023/09/25 04:04:13;;;;;;;12.88;9.57;;;22.50;99.90;;;;;;5207735;28;20512;-73
2023/09/25 04:06:44;;;;;;;12.02;10.15;;;22.50;99.90;;;;;;5207933;28;20489;-73
2023/09/25 04:09:15;;;;;;;15.70;10.43;;;22.50;99.90;;;;;;5207909;28;20064;-73
2023/09/25 04:11:46;;;;;;;15.65;9.50;;;22.50;99.90;;;;;;5207965;28;20035;-73
2023/09/25 04:14:17;;;;;;;10.90;9.88;;;22.40;99.90;;;;;;5206414;28;20527;-73
2023/09/25 04:16:51;;;;;;;12.00;10.82;;;22.50;99.90;;;;;;5206334;28;20075;-73
2023/09/25 04:19:21;;;;;;;15.13;11.68;;;22.50;99.90;;;;;;5207386;28;20120;-73
2023/09/25 04:21:53;;;;;;;13.68;11.75;;;22.50;99.90;;;;;;5205356;28;20113;-73
2023/09/25 04:24:24;;;;;;;12.23;10.93;;;22.50;99.90;;;;;;5206378;28;20086;-73
2023/09/25 04:26:55;;;;;;;13.60;10.35;;;22.60;99.90;;;;;;5206727;28;20041;-73
2023/09/25 04:29:26;;;;;;;11.98;10.70;;;22.60;99.90;;;;;;5206795;28;20057;-74
2023/09/25 04:31:58;;;;;;;13.00;10.30;;;22.60;99.90;;;;;;5204967;28;20029;-74
2023/09/25 04:34:29;;;;;;;16.98;11.45;;;22.60;99.90;;;;;;5206162;28;20460;-73
2023/09/25 04:36:59;;;;;;;14.57;11.25;;;22.60;99.90;;;;;;5207094;28;20084;-73
2023/09/25 04:39:32;;;;;;;15.82;11.20;;;22.70;99.90;;;;;;5206986;28;20112;-73
2023/09/25 04:42:03;;;;;;;14.75;12.02;;;22.80;99.90;;;;;;5205838;28;20044;-73
2023/09/25 04:44:34;;;;;;;12.90;11.60;;;22.80;99.90;;;;;;5207105;28;20033;-73
2023/09/25 04:47:05;;;;;;;12.85;11.63;;;22.80;99.90;;;;;;5207262;28;20100;-73
2023/09/25 04:49:36;;;;;;;14.55;11.73;;;22.70;99.90;;;;;;5207272;28;20117;-73
2023/09/25 04:52:07;;;;;;;12.77;11.45;;;22.80;99.90;;;;;;5207033;28;20104;-73
2023/09/25 04:54:38;;;;;;;13.63;10.52;;;22.80;99.90;;;;;;5207005;28;20036;-73
2023/09/25 04:57:08;;;;;;;13.75;12.32;;;22.80;99.90;;;;;;5241195;28;20037;-73
2023/09/25 04:59:39;;;;;;;12.90;11.55;;;22.80;99.90;;;;;;5246484;28;20380;-73
2023/09/25 05:02:10;;;;;;;13.75;11.63;;;22.80;99.90;;;;;;5247763;28;20086;-73
2023/09/25 05:04:41;;;;;;;12.38;10.98;;;22.80;99.90;;;;;;5248122;28;20529;-73
2023/09/25 05:07:12;;;;;;;13.73;12.18;;;22.80;99.90;;;;;;5248120;28;20104;-73
2023/09/25 05:09:43;;;;;;;13.85;12.45;;;22.90;99.90;;;;;;5248117;28;20111;-73
2023/09/25 05:12:14;;;;;;;14.27;12.82;;;22.90;99.90;;;;;;5247481;28;20098;-74
2023/09/25 05:14:45;;;;;;;14.00;12.45;;;22.90;99.90;;;;;;5247513;28;20067;-73
2023/09/25 05:17:16;;;;;;;15.38;13.13;;;23.00;99.90;;;;;;5247301;28;20056;-73
2023/09/25 05:19:47;;;;;;;14.68;12.82;;;23.00;99.90;;;;;;5246699;28;20032;-73
2023/09/25 05:22:18;;;;;;;14.45;12.88;;;23.00;99.90;;;;;;5245167;28;20029;-73
2023/09/25 05:24:49;;;;;;;18.13;13.57;;;23.00;99.90;;;;;;5245154;28;20467;-73
2023/09/25 05:27:21;;;;;;;16.63;12.45;;;23.00;99.90;;;;;;5224421;28;20024;-73
2023/09/25 05:29:52;;;;;;;13.88;12.50;;;23.10;99.90;;;;;;5223249;28;20087;-73
2023/09/25 05:32:23;;;;;;;15.23;11.95;;;23.10;99.90;;;;;;5224531;28;20021;-73
2023/09/25 05:34:54;;;;;;;13.77;11.57;;;23.10;99.90;;;;;;5226668;28;20033;-73
2023/09/25 05:37:25;;;;;;;14.45;11.27;;;23.10;99.90;;;;;;5226915;28;20013;-73
2023/09/25 05:39:55;;;;;;;16.92;11.98;;;23.10;99.90;;;;;;5227028;28;20412;-73
2023/09/25 05:42:26;;;;;;;14.27;12.82;;;23.20;99.90;;;;;;5227031;28;20373;-73
2023/09/25 05:44:57;;;;;;;17.85;13.43;;;23.20;99.90;;;;;;5226726;28;20079;-73
2023/09/25 05:47:28;;;;;;;13.38;12.07;;;23.10;99.90;;;;;;5226430;28;20031;-73
2023/09/25 05:50:00;;;;;;;19.65;11.45;;;23.20;99.90;;;;;;5226528;28;20096;-73
2023/09/25 05:52:30;;;;;;;17.00;12.05;;;23.10;99.90;;;;;;5224623;28;20017;-73
2023/09/25 05:55:08;;;;;;;14.45;12.88;;;23.20;99.90;;;;;;5225059;28;20029;-73
2023/09/25 05:57:39;;;;;;;16.58;13.63;;;23.30;99.90;;;;;;5225075;28;20021;-73
2023/09/25 06:00:12;;;;;;;18.55;12.43;;;23.30;99.90;;;;;;5226413;28;20489;-73
2023/09/25 06:02:43;;;;;;;14.85;12.88;;;23.40;99.90;;;;;;5226196;28;20079;-73
2023/09/25 06:05:14;;;;;;;15.20;13.27;;;23.50;99.90;;;;;;5226274;28;20033;-73
2023/09/25 06:07:46;;;;;;;21.05;12.73;;;23.60;99.90;;;;;;5225066;28;20025;-73
2023/09/25 06:10:18;;;;;;;14.57;11.85;;;23.70;99.90;;;;;;5225455;28;20033;-73
2023/09/25 06:12:50;;;;;;;14.77;12.02;;;23.80;99.90;;;;;;5225429;28;20041;-73
2023/09/25 06:15:23;;;;;;;12.68;11.05;;;23.80;99.90;;;;;;5223556;28;20082;-73
2023/09/25 06:17:57;;;;;;;13.65;10.18;;;23.90;99.90;;;;;;5224883;28;20409;-73
2023/09/25 06:20:29;;;;;;;13.85;9.57;;;24.00;99.90;;;;;;5224948;28;20116;-73
2023/09/25 06:23:00;;;;;;;11.63;8.95;;;24.00;99.90;;;;;;5224696;28;20662;-73
2023/09/25 06:25:32;;;;;;;11.75;9.13;;;24.00;99.90;;;;;;5225016;28;20060;-73
2023/09/25 06:28:03;;;;;;;15.30;9.40;;;24.00;99.90;;;;;;5224960;28;20380;-73
2023/09/25 06:30:35;;;;;;;14.32;8.98;;;23.90;99.90;;;;;;5225973;28;20029;-73
2023/09/25 06:33:06;;;;;;;15.57;9.05;;;23.90;99.90;;;;;;5224564;28;20009;-73
2023/09/25 06:35:37;;;;;;;13.15;8.98;;;23.90;99.90;;;;;;5225892;28;20040;-73
2023/09/25 06:38:08;;;;;;;13.65;8.68;;;24.20;99.90;;;;;;5226188;28;20013;-73
2023/09/25 06:40:46;;;;;;;13.00;8.80;;;24.10;99.90;;;;;;5224970;28;20033;-73
2023/09/25 06:43:17;;;;;;;15.05;8.70;;;24.00;99.90;;;;;;5224287;28;20056;-73
2023/09/25 06:45:48;;;;;;;15.27;8.93;;;24.00;99.90;;;;;;5225894;28;20036;-73
2023/09/25 06:48:19;;;;;;;14.55;8.50;;;24.20;99.90;;;;;;5224510;28;20033;-73
2023/09/25 06:50:50;;;;;;;13.90;8.13;;;24.20;99.90;;;;;;5225916;28;20039;-73
2023/09/25 06:53:21;;;;;;;10.32;8.68;;;24.20;99.90;;;;;;5226067;28;20419;-73
2023/09/25 06:55:52;;;;;;;13.27;8.75;;;24.20;99.90;;;;;;5224820;28;20024;-74
2023/09/25 06:58:23;;;;;;;12.65;10.02;;;24.50;99.90;;;;;;5225921;28;20025;-73
2023/09/25 07:00:54;;;;;;;14.98;10.45;;;24.50;99.90;;;;;;5225772;28;20044;-73
2023/09/25 07:03:26;;;;;;;12.20;9.45;;;24.40;99.90;;;;;;5225493;28;20037;-74
2023/09/25 07:05:57;;;;;;;12.30;11.10;;;24.50;99.90;;;;;;5229331;28;20551;-73
2023/09/25 07:08:27;;;;;;;13.60;12.35;;;24.60;99.90;;;;;;5229539;28;20036;-74
2023/09/25 07:10:58;;;;;;;14.52;13.13;;;24.90;99.90;;;;;;5228364;28;20021;-73
2023/09/25 07:13:29;;;;;;;13.13;11.68;;;25.00;99.90;;;;;;5226468;28;20052;-73
2023/09/25 07:16:08;;;;;;;11.70;10.43;;;25.10;99.90;;;;;;5228426;28;20082;-73
2023/09/25 07:18:39;;;;;;;13.88;11.02;;;25.10;99.90;;;;;;5228428;28;20032;-73
2023/09/25 07:21:10;;;;;;;23.77;10.85;;;25.40;99.90;;;;;;5228453;28;20435;-73
2023/09/25 07:23:41;;;;;;;11.90;10.80;;;25.20;99.90;;;;;;5226707;28;20040;-73
2023/09/25 07:26:15;;;;;;;16.15;10.82;;;25.00;99.90;;;;;;5229410;28;20135;-74
2023/09/25 07:28:49;;;;;;;14.18;12.80;;;25.00;99.90;;;;;;5229473;28;20021;-73
2023/09/25 07:31:22;;;;;;;16.77;14.32;;;24.80;99.90;;;;;;5227994;28;20122;-73
2023/09/25 07:33:55;;;;;;;15.88;13.27;;;24.80;99.90;;;;;;5227954;28;20021;-73
2023/09/25 07:36:27;;;;;;;16.90;13.02;;;25.00;99.90;;;;;;5229140;28;20021;-73
2023/09/25 07:38:57;;;;;;;15.38;12.93;;;25.00;99.90;;;;;;5227869;28;20025;-73
2023/09/25 07:41:28;;;;;;;18.55;13.10;;;24.90;99.90;;;;;;5228872;28;20389;-73
2023/09/25 07:44:04;;;;;;;14.80;13.32;;;24.90;99.90;;;;;;5228864;28;20041;-73
2023/09/25 07:46:35;;;;;;;13.93;12.35;;;24.90;99.90;;;;;;5229188;28;20017;-73
2023/09/25 07:49:06;;;;;;;13.10;11.52;;;24.90;99.90;;;;;;5227793;28;20379;-73
2023/09/25 07:51:37;;;;;;;14.40;12.88;;;24.80;99.90;;;;;;5229188;28;20107;-73
2023/09/25 07:54:08;;;;;;;12.98;10.50;;;24.80;99.90;;;;;;5227518;28;20116;-73
2023/09/25 07:56:39;;;;;;;13.93;10.85;;;25.00;99.90;;;;;;5227719;28;20556;-73
2023/09/25 07:59:13;;;;;;;14.35;11.00;;;25.10;99.90;;;;;;5229091;28;20052;-73
2023/09/25 08:01:44;;;;;;;15.73;10.82;;;25.20;99.90;;;;;;5228634;28;20110;-73
2023/09/25 08:04:15;;;;;;;14.90;11.73;;;25.20;99.90;;;;;;5227278;28;20071;-73
2023/09/25 08:06:46;;;;;;;18.92;11.50;;;25.10;99.90;;;;;;5227698;28;20029;-73
2023/09/25 08:09:19;;;;;;;13.45;11.77;;;25.00;99.90;;;;;;5227430;28;20755;-73
2023/09/25 08:11:50;;;;;;;12.55;10.70;;;25.00;99.90;;;;;;5226992;28;20503;-73
2023/09/25 08:14:21;;;;;;;11.48;9.70;;;25.00;99.90;;;;;;5227005;28;20069;-73
2023/09/25 08:16:52;;;;;;;10.85;9.75;;;25.00;99.90;;;;;;5227088;28;20025;-73
2023/09/25 08:19:23;;;;;;;12.88;11.15;;;25.10;99.90;;;;;;5227164;28;20047;-73
2023/09/25 08:21:54;;;;;;;16.88;11.00;;;25.30;99.90;;;;;;5227808;28;20041;-73
2023/09/25 08:24:25;;;;;;;14.20;10.40;;;25.60;99.90;;;;;;5228202;28;20498;-73
2023/09/25 08:26:57;;;;;;;13.60;11.52;;;25.40;99.90;;;;;;5228259;28;20385;-73
2023/09/25 08:29:27;;;;;;;13.52;12.10;;;25.40;99.90;;;;;;5228231;28;20028;-73
2023/09/25 08:31:58;;;;;;;13.13;11.80;;;25.40;99.90;;;;;;5228132;28;20025;-73
2023/09/25 08:34:29;;;;;;;16.40;11.20;;;25.60;99.90;;;;;;5228134;28;20033;-74
2023/09/25 08:37:00;;;;;;;11.98;10.70;;;25.70;99.90;;;;;;5226678;28;20032;-73
2023/09/25 08:39:31;;;;;;;12.60;11.25;;;25.60;99.90;;;;;;5227987;28;20021;-73
2023/09/25 08:42:02;;;;;;;17.92;11.32;;;25.90;99.90;;;;;;5227698;28;20385;-73
2023/09/25 08:44:33;;;;;;;15.27;11.70;;;26.10;99.90;;;;;;5227759;28;20472;-74
2023/09/25 08:47:04;;;;;;;14.95;13.43;;;26.10;99.90;;;;;;5227895;28;20481;-73
2023/09/25 08:49:36;;;;;;;13.25;11.02;;;26.10;99.90;;;;;;5227727;28;20071;-73
2023/09/25 08:52:07;;;;;;;15.32;10.32;;;25.80;99.90;;;;;;5226309;28;20028;-74
2023/09/25 08:54:38;;;;;;;15.13;10.35;;;25.70;99.90;;;;;;5227661;28;20104;-73
2023/09/25 08:57:10;;;;;;;13.10;9.82;;;25.90;99.90;;;;;;5226729;28;20468;-73
2023/09/25 08:59:46;;;;;;;21.73;9.40;;;25.60;99.90;;;;;;5226922;28;20064;-74
2023/09/25 09:02:18;;;;;;;12.70;9.27;;;25.60;99.90;;;;;;5227452;28;20621;-74
2023/09/25 09:04:49;;;;;;;11.27;9.48;;;25.60;99.90;;;;;;5226274;28;20108;-73
2023/09/25 09:07:19;;;;;;;13.65;9.43;;;25.60;99.90;;;;;;5226202;28;20104;-73
2023/09/25 09:09:51;;;;;;;13.75;9.45;;;25.30;99.90;;;;;;5226263;28;20488;-73
2023/09/25 09:12:22;;;;;;;9.98;8.98;;;25.50;99.90;;;;;;5225717;28;20056;-73
2023/09/25 09:14:53;;;;;;;14.05;8.93;;;25.40;99.90;;;;;;5226275;28;20037;-74
2023/09/25 09:17:28;;;;;;;17.15;9.02;;;25.50;99.90;;;;;;5225930;28;20029;-74
2023/09/25 09:19:59;;;;;;;10.48;8.77;;;25.60;99.90;;;;;;5227288;28;20079;-73
2023/09/25 09:22:30;;;;;;;12.05;8.07;;;25.70;99.90;;;;;;5227061;28;20033;-73
2023/09/25 09:25:01;;;;;;;12.43;9.07;;;25.40;99.90;;;;;;5227173;28;20041;-73
2023/09/25 09:27:32;;;;;;;11.45;8.98;;;25.70;99.90;;;;;;5226312;28;20108;-73
2023/09/25 09:30:21;;;;;;;9.57;8.20;;;25.90;99.90;;;;;;5225749;28;20405;-73
2023/09/25 09:32:52;;;;;;;13.75;9.65;;;25.90;99.90;;;;;;5226964;28;20445;-73
2023/09/25 09:35:24;;;;;;;10.65;8.68;;;25.90;99.90;;;;;;5226916;28;20033;-73
2023/09/25 09:37:57;;;;;;;11.98;10.52;;;26.00;99.90;;;;;;5226932;28;20108;-73
2023/09/25 09:40:30;;;;;;;14.57;13.23;;;26.20;99.90;;;;;;5226810;28;20067;-73
2023/09/25 09:43:03;;;;;;;19.30;11.35;;;26.30;99.90;;;;;;5226724;28;20428;-73
2023/09/25 09:45:35;;;;;;;9.07;8.15;;;26.30;99.90;;;;;;5226687;28;20028;-73
2023/09/25 09:48:07;;;;;;;12.35;11.10;;;26.40;99.90;;;;;;5225374;28;20055;-73
2023/09/25 09:50:44;;;;;;;9.55;8.40;;;26.60;99.90;;;;;;5226587;28;20112;-73
2023/09/25 09:53:17;;;;;;;9.65;8.75;;;26.40;99.90;;;;;;5226583;28;20024;-73
2023/09/25 09:55:49;;;;;;;12.23;7.93;;;26.40;99.90;;;;;;5225699;28;20029;-74
2023/09/25 09:58:20;;;;;;;12.20;8.07;;;26.30;99.90;;;;;;5224702;28;20023;-73
2023/09/25 10:00:54;;;;;;;11.23;8.60;;;26.10;99.90;;;;;;5225224;28;20029;-73
2023/09/25 10:03:25;;;;;;;9.90;8.90;;;26.10;99.90;;;;;;5224948;28;20037;-74
2023/09/25 10:05:56;;;;;;;12.65;8.50;;;26.10;99.90;;;;;;5225024;28;20483;-73
2023/09/25 10:08:29;;;;;;;13.80;9.98;;;26.20;99.90;;;;;;5225172;28;20476;-73
2023/09/25 10:11:23;;;;;;;14.02;8.20;;;26.10;99.90;;;;;;5224084;28;20522;-74
2023/09/25 10:13:58;;;;;;;13.40;8.43;;;26.20;99.90;;;;;;5225620;28;20518;-73
2023/09/25 10:16:30;;;;;;;10.77;8.82;;;26.00;99.90;;;;;;5224908;28;20078;-73
2023/09/25 10:19:01;;;;;;;9.35;7.65;;;26.40;99.90;;;;;;5226320;28;20024;-73
2023/09/25 10:21:31;;;;;;;9.93;7.28;;;26.40;99.90;;;;;;5225092;28;20028;-73
2023/09/25 10:24:03;;;;;;;11.75;7.65;;;26.10;99.90;;;;;;5226443;28;20041;-74
2023/09/25 10:26:34;;;;;;;11.75;7.85;;;25.90;99.90;;;;;;5225373;28;20021;-73
2023/09/25 10:29:15;;;;;;;16.90;7.80;;;25.80;99.90;;;;;;5226275;28;20037;-74
2023/09/25 10:31:47;;;;;;;11.85;7.53;;;26.00;99.90;;;;;;5225932;28;20025;-73
2023/09/25 10:34:17;;;;;;;11.50;7.78;;;26.30;99.90;;;;;;5226213;28;20036;-73
2023/09/25 10:36:50;;;;;;;11.05;7.63;;;26.10;99.90;;;;;;5226304;28;20021;-73
2023/09/25 10:39:21;;;;;;;11.30;7.22;;;26.20;99.90;;;;;;5225982;28;20021;-73
2023/09/25 10:42:13;;;;;;;11.07;7.85;;;26.30;99.90;;;;;;5225859;28;20044;-73
2023/09/25 10:44:44;;;;;;;11.25;8.20;;;26.30;99.90;;;;;;5225920;28;20067;-73
2023/09/25 10:47:15;;;;;;;11.55;8.13;;;26.00;99.90;;;;;;5226200;28;20036;-73
2023/09/25 10:49:48;;;;;;;10.90;8.38;;;25.90;99.90;;;;;;5226087;28;20028;-74
2023/09/25 10:52:19;;;;;;;12.52;7.82;;;26.10;99.90;;;;;;5223865;28;20040;-73
2023/09/25 10:54:50;;;;;;;14.85;8.77;;;26.30;99.90;;;;;;5223716;28;20392;-73
2023/09/25 10:57:21;;;;;;;12.80;9.38;;;26.30;99.90;;;;;;5224476;28;20029;-74
2023/09/25 10:59:52;;;;;;;14.65;8.63;;;26.20;99.90;;;;;;5224570;28;20028;-73
2023/09/25 11:02:22;;;;;;;12.30;7.22;;;26.20;99.90;;;;;;5224492;28;20051;-74
2023/09/25 11:04:53;;;;;;;12.73;8.57;;;26.40;99.90;;;;;;5224432;28;20029;-73
2023/09/25 11:07:26;;;;;;;9.27;7.70;;;26.20;99.90;;;;;;5224330;28;20489;-73
2023/09/25 11:09:56;;;;;;;14.10;7.90;;;26.00;99.90;;;;;;5224888;28;20108;-74
2023/09/25 11:12:27;;;;;;;12.65;7.78;;;25.90;99.90;;;;;;5223599;28;20564;-73
2023/09/25 11:14:58;;;;;;;10.02;8.65;;;25.80;99.90;;;;;;5225580;28;20057;-73
2023/09/25 11:17:30;;;;;;;12.07;9.02;;;25.60;99.90;;;;;;5224176;28;20120;-73
2023/09/25 11:20:07;;;;;;;12.10;8.75;;;25.70;99.90;;;;;;5224087;28;20029;-73
2023/09/25 11:22:41;;;;;;;16.48;12.90;;;26.00;99.90;;;;;;5225297;28;20538;-73
2023/09/25 11:25:16;;;;;;;17.38;11.65;;;26.20;99.90;;;;;;5225524;28;20115;-73
2023/09/25 11:27:54;;;;;;;9.88;8.27;;;26.20;99.90;;;;;;5225292;28;20041;-73
2023/09/25 11:30:29;;;;;;;11.53;8.67;;;26.50;99.90;;;;;;5225606;28;20032;-73
2023/09/25 11:33:08;;;;;;;13.82;8.18;;;26.30;99.90;;;;;;5225474;28;20403;-73
2023/09/25 11:35:39;;;;;;;13.40;8.68;;;26.40;99.90;;;;;;5225813;28;20028;-73
2023/09/25 11:38:12;;;;;;;14.07;7.95;;;26.40;99.90;;;;;;5223812;28;20049;-73
2023/09/25 11:40:44;;;;;;;18.30;11.38;;;26.20;99.90;;;;;;5224572;28;20086;-74
2023/09/25 11:43:16;;;;;;;13.65;8.38;;;26.20;99.90;;;;;;5223169;28;20037;-73
2023/09/25 11:45:48;;;;;;;15.63;9.43;;;26.20;99.90;;;;;;5224944;28;20051;-73
2023/09/25 11:48:19;;;;;;;12.27;8.85;;;26.30;99.90;;;;;;5223924;28;20013;-74
2023/09/25 11:50:50;;;;;;;14.13;9.38;;;26.40;99.90;;;;;;5226628;28;20025;-73
2023/09/25 11:53:21;;;;;;;19.63;8.90;;;26.50;99.90;;;;;;5227630;28;20411;-73
2023/09/25 11:55:52;;;;;;;12.68;8.95;;;26.50;99.90;;;;;;5227792;28;20788;-73
2023/09/25 11:58:23;;;;;;;17.58;8.93;;;26.30;99.90;;;;;;5227298;28;20013;-74
2023/09/25 12:00:54;;;;;;;15.18;8.82;;;26.20;99.90;;;;;;5227442;28;20108;-74
2023/09/25 12:03:24;;;;;;;14.75;9.63;;;26.00;99.90;;;;;;5227308;28;20643;-73
2023/09/25 12:05:55;;;;;;;12.15;9.60;;;26.10;99.90;;;;;;5227757;28;20099;-74
2023/09/25 12:08:26;;;;;;;17.38;9.63;;;26.20;99.90;;;;;;5228739;28;20460;-73
2023/09/25 12:10:57;;;;;;;10.93;8.63;;;26.50;99.90;;;;;;5228535;28;20029;-73
2023/09/25 12:13:28;;;;;;;11.68;8.93;;;26.70;99.90;;;;;;5226886;28;20142;-73
2023/09/25 12:15:59;;;;;;;12.60;7.68;;;26.50;99.90;;;;;;5228552;28;20741;-73
2023/09/25 12:18:30;;;;;;;12.93;7.63;;;26.50;99.90;;;;;;5228586;28;20021;-73
2023/09/25 12:21:01;;;;;;;17.13;10.77;;;26.10;99.90;;;;;;5227022;28;20025;-73
2023/09/25 12:23:34;;;;;;;14.05;10.18;;;26.00;99.90;;;;;;5227848;28;20036;-73
2023/09/25 12:26:05;;;;;;;17.02;8.50;;;25.90;99.90;;;;;;5226938;28;20094;-73
2023/09/25 12:28:35;;;;;;;18.15;9.32;;;25.80;99.90;;;;;;5226977;28;20032;-74
2023/09/25 12:31:06;;;;;;;19.05;10.48;;;25.80;99.90;;;;;;5228127;28;20380;-73
2023/09/25 12:33:37;;;;;;;19.20;9.73;;;25.70;99.90;;;;;;5228363;28;20038;-73
2023/09/25 12:36:08;;;;;;;13.18;10.10;;;25.80;99.90;;;;;;5226882;28;20025;-74
2023/09/25 12:38:39;;;;;;;14.90;9.90;;;26.00;99.90;;;;;;5226332;28;20402;-73
2023/09/25 12:41:10;;;;;;;17.73;10.43;;;26.10;99.90;;;;;;5227945;28;20025;-73
2023/09/25 12:43:41;;;;;;;16.40;9.55;;;26.10;99.90;;;;;;5225900;28;20676;-74
2023/09/25 12:46:12;;;;;;;17.35;9.52;;;26.10;99.90;;;;;;5227997;28;20546;-74
2023/09/25 12:48:43;;;;;;;15.15;8.80;;;26.40;99.90;;;;;;5226952;28;20485;-73
2023/09/25 12:51:14;;;;;;;16.92;8.90;;;26.30;99.90;;;;;;5225468;28;20024;-73
2023/09/25 12:53:44;;;;;;;12.02;8.10;;;26.40;99.90;;;;;;5226833;28;20013;-74
2023/09/25 12:56:15;;;;;;;17.98;8.90;;;26.20;99.90;;;;;;5226628;28;20437;-73
2023/09/25 12:58:46;;;;;;;14.65;9.00;;;26.40;99.90;;;;;;5226487;28;20044;-74